< < Back
Terminal Aerodrome Forecast


Current Version              Previous Versions:   1  2  3  4  5  6  7  8  9  

Terminal Aerodrome Forecast

737
FTUS44 KBMX 281120
TAFANB
TAF
KANB 281120Z 2812/2912 09002KT P6SM SCT060 BKN150
     FM281500 13007KT P6SM SCT050 BKN200
     FM290200 00000KT P6SM BKN250
     FM290900 00000KT 4SM BR SCT200=

Latest METAR

089
SAUS70 KWBC 282000 RRJ
MTRANB
METAR KANB 281953Z AUTO 11005KT 10SM FEW060 29/14 A3008 RMK AO2 SLP176
T02940144


USA.gov is the U.S. government's official web portal to all federal, state and local government web resources and services.